Time;durP1;ratioP1;P1;durP2;ratioP2;P2;SDS_P1;SDS_P2;PMS_P1;PMS_P2;Temp;Humidity;BMP_temperature;BMP_pressure;BME280_temperature;BME280_humidity;BME280_pressure;Samples;Min_cycle;Max_cycle;Signal;HPM_P1;HPM_P2
2021/06/14 00:01:14;;;;;;;2.25;1.63;;;;;;;;;;5076483;28;20083;-62
2021/06/14 00:03:40;;;;;;;4.80;1.80;;;;;;;;;;5076110;28;20052;-63
2021/06/14 00:06:06;;;;;;;2.75;1.55;;;;;;;;;;5075083;28;20467;-62
2021/06/14 00:08:31;;;;;;;1.60;1.50;;;;;;;;;;5076435;28;20028;-62
2021/06/14 00:10:57;;;;;;;3.20;1.70;;;;;;;;;;5076411;28;20470;-62
2021/06/14 00:13:24;;;;;;;2.42;1.95;;;;;;;;;;5076370;28;20094;-62
2021/06/14 00:15:49;;;;;;;4.70;1.85;;;;;;;;;;5075009;28;20042;-62
2021/06/14 00:18:15;;;;;;;3.35;1.80;;;;;;;;;;5076028;28;20450;-62
2021/06/14 00:20:42;;;;;;;2.10;1.42;;;;;;;;;;5076048;28;20037;-62
2021/06/14 00:23:08;;;;;;;2.85;1.70;;;;;;;;;;5075882;28;20116;-62
2021/06/14 00:25:35;;;;;;;1.90;1.75;;;;;;;;;;5076148;28;20056;-62
2021/06/14 00:28:01;;;;;;;3.78;2.33;;;;;;;;;;5076233;28;20470;-62
2021/06/14 00:30:29;;;;;;;4.75;2.60;;;;;;;;;;5076129;28;20050;-62
2021/06/14 00:32:54;;;;;;;4.93;2.80;;;;;;;;;;5075575;28;20021;-63
2021/06/14 00:35:20;;;;;;;3.65;2.30;;;;;;;;;;5074627;28;20115;-62
2021/06/14 00:37:45;;;;;;;3.67;2.80;;;;;;;;;;5076140;28;20051;-63
2021/06/14 00:40:11;;;;;;;5.18;3.10;;;;;;;;;;5075906;28;20037;-62
2021/06/14 00:42:37;;;;;;;2.78;2.45;;;;;;;;;;5074270;28;20020;-63
2021/06/14 00:45:06;;;;;;;3.40;2.60;;;;;;;;;;5074351;28;20024;-63
2021/06/14 00:47:32;;;;;;;2.72;2.08;;;;;;;;;;5074330;28;20383;-62
2021/06/14 00:49:57;;;;;;;3.92;2.70;;;;;;;;;;5075500;28;20036;-62
2021/06/14 00:52:23;;;;;;;2.88;2.22;;;;;;;;;;5074159;28;20008;-62
2021/06/14 00:54:48;;;;;;;3.33;2.50;;;;;;;;;;5075474;28;20032;-62
2021/06/14 00:57:16;;;;;;;6.38;2.53;;;;;;;;;;5074099;28;20028;-62
2021/06/14 00:59:42;;;;;;;3.83;1.98;;;;;;;;;;5074270;28;20021;-62
2021/06/14 01:02:08;;;;;;;3.80;2.17;;;;;;;;;;5074902;28;20016;-63
2021/06/14 01:04:33;;;;;;;3.05;2.47;;;;;;;;;;5074072;28;20474;-62
2021/06/14 01:06:59;;;;;;;5.07;2.85;;;;;;;;;;5075254;28;20028;-62
2021/06/14 01:09:26;;;;;;;2.30;2.10;;;;;;;;;;5074016;28;20035;-62
2021/06/14 01:11:51;;;;;;;2.50;2.05;;;;;;;;;;5073855;28;20099;-62
2021/06/14 01:14:30;;;;;;;5.13;1.98;;;;;;;;;;5073916;28;20037;-62
2021/06/14 01:17:03;;;;;;;3.10;2.17;;;;;;;;;;5074930;28;20033;-62
2021/06/14 01:19:50;;;;;;;4.68;2.00;;;;;;;;;;5073969;28;20056;-62
2021/06/14 01:22:34;;;;;;;2.67;2.00;;;;;;;;;;5075088;28;20437;-62
2021/06/14 01:25:18;;;;;;;3.50;1.48;;;;;;;;;;5074897;28;20021;-62
2021/06/14 01:27:45;;;;;;;2.80;1.80;;;;;;;;;;5074913;28;20438;-62
2021/06/14 01:30:24;;;;;;;4.50;2.58;;;;;;;;;;5074923;28;20381;-62
2021/06/14 01:32:52;;;;;;;2.63;2.13;;;;;;;;;;5073663;28;20112;-62
2021/06/14 01:35:31;;;;;;;2.97;1.88;;;;;;;;;;5073582;28;20027;-62
2021/06/14 01:37:59;;;;;;;2.60;1.80;;;;;;;;;;5074565;28;20493;-62
2021/06/14 01:40:25;;;;;;;4.35;2.08;;;;;;;;;;5074685;28;20035;-62
2021/06/14 01:42:53;;;;;;;3.55;2.10;;;;;;;;;;5073151;28;20036;-62
2021/06/14 01:45:20;;;;;;;3.17;2.00;;;;;;;;;;5073464;28;20032;-62
2021/06/14 01:47:46;;;;;;;4.38;2.42;;;;;;;;;;5073213;28;20016;-62
2021/06/14 01:50:13;;;;;;;3.25;2.30;;;;;;;;;;5073145;28;20028;-62
2021/06/14 01:52:40;;;;;;;4.05;2.28;;;;;;;;;;5073318;28;20389;-62
2021/06/14 01:55:07;;;;;;;7.10;2.67;;;;;;;;;;5073182;28;20121;-62
2021/06/14 01:57:40;;;;;;;2.80;2.50;;;;;;;;;;5073065;28;20028;-62
2021/06/14 02:00:17;;;;;;;3.22;2.67;;;;;;;;;;5074452;28;20029;-64
2021/06/14 02:03:17;;;;;;;5.78;3.70;;;;;;;;;;5072475;28;20044;-62
2021/06/14 02:05:50;;;;;;;10.80;5.63;;;;;;;;;;5072975;28;20371;-62
2021/06/14 02:08:17;;;;;;;7.93;5.13;;;;;;;;;;5074342;28;20040;-63
2021/06/14 02:10:44;;;;;;;6.88;3.53;;;;;;;;;;5074075;28;20062;-62
2021/06/14 02:13:10;;;;;;;4.97;2.85;;;;;;;;;;5073698;28;20103;-62
2021/06/14 02:15:36;;;;;;;4.22;2.30;;;;;;;;;;5072798;28;20021;-62
2021/06/14 02:18:06;;;;;;;4.90;2.65;;;;;;;;;;5072869;28;20025;-62
2021/06/14 02:20:32;;;;;;;7.80;3.97;;;;;;;;;;5072399;28;20040;-62
2021/06/14 02:22:58;;;;;;;5.47;4.05;;;;;;;;;;5072136;28;20100;-62
2021/06/14 02:25:24;;;;;;;5.50;2.97;;;;;;;;;;5073950;28;20012;-62
2021/06/14 02:27:54;;;;;;;5.00;3.30;;;;;;;;;;5073962;28;20024;-62
2021/06/14 02:30:23;;;;;;;6.57;2.88;;;;;;;;;;5072392;28;20027;-62
2021/06/14 02:32:49;;;;;;;5.20;2.97;;;;;;;;;;5072660;28;20119;-62
2021/06/14 02:35:15;;;;;;;8.88;3.13;;;;;;;;;;5055891;28;20058;-62
2021/06/14 02:37:45;;;;;;;8.23;3.10;;;;;;;;;;5073676;28;20032;-63
2021/06/14 02:40:12;;;;;;;3.58;2.40;;;;;;;;;;5073686;28;20332;-62
2021/06/14 02:42:39;;;;;;;6.13;2.70;;;;;;;;;;5055393;28;20110;-62
2021/06/14 02:45:06;;;;;;;5.53;3.00;;;;;;;;;;5072411;28;20082;-63
2021/06/14 02:47:32;;;;;;;7.40;2.60;;;;;;;;;;5055668;28;20039;-63
2021/06/14 02:49:58;;;;;;;4.35;2.58;;;;;;;;;;5072294;28;20514;-63
2021/06/14 02:52:25;;;;;;;3.20;2.08;;;;;;;;;;5073325;28;20016;-62
2021/06/14 02:54:56;;;;;;;4.07;2.50;;;;;;;;;;5072166;28;20081;-62
2021/06/14 02:57:23;;;;;;;3.38;2.22;;;;;;;;;;5072393;28;20481;-63
2021/06/14 02:59:50;;;;;;;4.57;2.38;;;;;;;;;;5072221;28;20016;-63
2021/06/14 03:02:22;;;;;;;4.60;2.28;;;;;;;;;;5072798;28;20031;-63
2021/06/14 03:04:47;;;;;;;2.70;2.10;;;;;;;;;;5072456;28;20029;-63
2021/06/14 03:07:15;;;;;;;4.40;2.60;;;;;;;;;;5072109;28;20032;-62
2021/06/14 03:09:41;;;;;;;5.28;2.45;;;;;;;;;;5073299;28;20031;-63
2021/06/14 03:12:07;;;;;;;4.38;2.72;;;;;;;;;;5072027;28;20426;-63
2021/06/14 03:14:34;;;;;;;7.55;2.88;;;;;;;;;;5071726;28;20029;-63
2021/06/14 03:17:01;;;;;;;5.43;2.85;;;;;;;;;;5073035;28;20028;-63
2021/06/14 03:19:29;;;;;;;3.47;2.67;;;;;;;;;;5071906;28;20028;-63
2021/06/14 03:22:09;;;;;;;4.80;2.47;;;;;;;;;;5072254;28;20024;-63
2021/06/14 03:24:36;;;;;;;4.28;2.75;;;;;;;;;;5074615;28;20060;-63
2021/06/14 03:27:02;;;;;;;4.28;2.38;;;;;;;;;;5075981;28;20094;-63
2021/06/14 03:29:29;;;;;;;3.65;2.45;;;;;;;;;;5075884;28;20028;-63
2021/06/14 03:31:55;;;;;;;3.80;2.33;;;;;;;;;;5077260;28;20020;-63
2021/06/14 03:34:22;;;;;;;7.75;2.70;;;;;;;;;;5076889;28;20024;-62
2021/06/14 03:36:48;;;;;;;7.57;3.15;;;;;;;;;;5077013;28;20024;-69
2021/06/14 03:39:17;;;;;;;3.22;2.35;;;;;;;;;;5076861;28;20033;-63
2021/06/14 03:41:45;;;;;;;3.72;2.80;;;;;;;;;;5076770;28;20081;-63
2021/06/14 03:44:11;;;;;;;4.68;2.40;;;;;;;;;;5076895;28;20025;-63
2021/06/14 03:46:36;;;;;;;2.97;2.67;;;;;;;;;;5076780;28;20028;-61
2021/06/14 03:49:03;;;;;;;3.97;2.75;;;;;;;;;;5076520;28;20025;-61
2021/06/14 03:51:30;;;;;;;4.45;2.67;;;;;;;;;;5076582;28;20379;-61
2021/06/14 03:53:59;;;;;;;4.55;2.45;;;;;;;;;;5076499;28;20047;-61
2021/06/14 03:56:26;;;;;;;5.65;2.70;;;;;;;;;;5076486;28;20020;-60
2021/06/14 03:58:52;;;;;;;5.80;2.35;;;;;;;;;;5076788;28;20025;-60
2021/06/14 04:01:17;;;;;;;5.82;2.50;;;;;;;;;;5076807;28;20382;-60
2021/06/14 04:03:47;;;;;;;3.95;2.78;;;;;;;;;;5076433;28;20056;-60
2021/06/14 04:06:12;;;;;;;3.40;2.40;;;;;;;;;;5074350;28;20028;-60
2021/06/14 04:08:41;;;;;;;3.50;2.60;;;;;;;;;;5075068;28;20389;-60
2021/06/14 04:11:07;;;;;;;4.13;2.63;;;;;;;;;;5076064;28;20104;-60
2021/06/14 04:13:33;;;;;;;3.67;2.38;;;;;;;;;;5076047;28;20036;-60
2021/06/14 04:15:59;;;;;;;4.57;2.90;;;;;;;;;;5075879;28;20078;-61
2021/06/14 04:18:25;;;;;;;4.15;2.58;;;;;;;;;;5075115;28;20032;-60
2021/06/14 04:20:50;;;;;;;3.28;2.40;;;;;;;;;;5076352;28;20020;-60
2021/06/14 04:23:16;;;;;;;4.13;2.60;;;;;;;;;;5075820;28;20068;-61
2021/06/14 04:25:42;;;;;;;4.18;2.55;;;;;;;;;;5074690;28;20467;-61
2021/06/14 04:28:07;;;;;;;5.55;2.88;;;;;;;;;;5075932;28;20024;-60
2021/06/14 04:30:34;;;;;;;4.75;2.95;;;;;;;;;;5076001;28;20492;-60
2021/06/14 04:33:00;;;;;;;3.30;2.85;;;;;;;;;;5075949;28;20479;-60
2021/06/14 04:35:26;;;;;;;5.00;3.13;;;;;;;;;;5075513;28;20028;-61
2021/06/14 04:37:51;;;;;;;5.78;3.20;;;;;;;;;;5074674;28;20036;-61
2021/06/14 04:40:17;;;;;;;4.68;3.22;;;;;;;;;;5075978;28;20023;-61
2021/06/14 04:42:43;;;;;;;5.25;3.10;;;;;;;;;;5075846;28;20036;-60
2021/06/14 04:45:09;;;;;;;4.93;3.15;;;;;;;;;;5075985;28;20370;-60
2021/06/14 04:47:36;;;;;;;4.88;2.85;;;;;;;;;;5075586;28;20121;-60
2021/06/14 04:50:01;;;;;;;4.63;3.25;;;;;;;;;;5075761;28;20005;-60
2021/06/14 04:52:28;;;;;;;5.05;2.88;;;;;;;;;;5075320;28;20494;-60
2021/06/14 04:54:55;;;;;;;4.68;2.80;;;;;;;;;;5075414;28;20364;-60
2021/06/14 04:57:21;;;;;;;4.65;2.85;;;;;;;;;;5075212;28;20060;-60
2021/06/14 04:59:47;;;;;;;6.20;2.75;;;;;;;;;;5075438;28;20008;-60
2021/06/14 05:02:12;;;;;;;8.82;3.80;;;;;;;;;;5074934;28;20423;-61
2021/06/14 05:04:38;;;;;;;5.15;3.63;;;;;;;;;;5074747;28;20066;-60
2021/06/14 05:07:04;;;;;;;5.65;3.03;;;;;;;;;;5075408;28;20021;-60
2021/06/14 05:09:29;;;;;;;5.30;3.10;;;;;;;;;;5075219;28;20078;-60
2021/06/14 05:11:55;;;;;;;6.20;3.70;;;;;;;;;;5073608;28;20532;-59
2021/06/14 05:14:20;;;;;;;8.98;3.40;;;;;;;;;;5075356;28;20086;-60
2021/06/14 05:16:46;;;;;;;6.28;2.83;;;;;;;;;;5075338;28;20043;-60
2021/06/14 05:19:11;;;;;;;4.47;2.60;;;;;;;;;;5074974;28;20063;-60
2021/06/14 05:21:37;;;;;;;5.88;2.42;;;;;;;;;;5075046;28;20119;-60
2021/06/14 05:24:03;;;;;;;7.35;3.03;;;;;;;;;;5074883;28;20025;-60
2021/06/14 05:26:29;;;;;;;5.90;2.85;;;;;;;;;;5074811;28;20030;-60
2021/06/14 05:28:54;;;;;;;6.13;3.30;;;;;;;;;;5074802;28;20025;-60
2021/06/14 05:31:21;;;;;;;3.58;2.67;;;;;;;;;;5074549;28;20032;-60
2021/06/14 05:33:46;;;;;;;7.57;3.15;;;;;;;;;;5074698;28;20024;-60
2021/06/14 05:36:12;;;;;;;6.00;2.90;;;;;;;;;;5074616;28;20040;-60
2021/06/14 05:38:38;;;;;;;4.03;2.58;;;;;;;;;;5073104;28;20024;-60
2021/06/14 05:41:03;;;;;;;3.33;2.55;;;;;;;;;;5074551;28;20032;-60
2021/06/14 05:43:29;;;;;;;6.72;3.08;;;;;;;;;;5074519;28;20027;-62
2021/06/14 05:45:55;;;;;;;3.75;3.08;;;;;;;;;;5074345;28;20499;-63
2021/06/14 05:48:20;;;;;;;4.57;2.53;;;;;;;;;;5073322;28;20016;-63
2021/06/14 05:50:45;;;;;;;4.53;2.70;;;;;;;;;;5074345;28;20025;-63
2021/06/14 05:53:12;;;;;;;5.72;3.30;;;;;;;;;;5074597;28;20095;-61
2021/06/14 05:55:38;;;;;;;4.75;3.00;;;;;;;;;;5074004;28;20028;-60
2021/06/14 05:58:03;;;;;;;5.13;3.13;;;;;;;;;;5072983;28;20038;-60
2021/06/14 06:00:29;;;;;;;5.57;3.40;;;;;;;;;;5074066;28;20039;-60
2021/06/14 06:02:54;;;;;;;5.65;3.05;;;;;;;;;;5072954;28;20071;-60
2021/06/14 06:05:22;;;;;;;5.75;3.78;;;;;;;;;;5074560;28;20025;-60
2021/06/14 06:07:47;;;;;;;6.22;3.30;;;;;;;;;;5073932;28;20485;-60
2021/06/14 06:10:13;;;;;;;7.28;3.22;;;;;;;;;;5073781;28;20039;-60
2021/06/14 06:12:40;;;;;;;5.50;3.28;;;;;;;;;;5073875;28;20024;-60
2021/06/14 06:15:11;;;;;;;6.13;2.75;;;;;;;;;;5072569;28;20020;-60
2021/06/14 06:17:36;;;;;;;3.45;2.38;;;;;;;;;;5073819;28;20039;-60
2021/06/14 06:20:06;;;;;;;2.72;2.42;;;;;;;;;;5073811;28;20024;-60
2021/06/14 06:22:31;;;;;;;4.63;2.23;;;;;;;;;;5073655;28;20027;-60
2021/06/14 06:24:57;;;;;;;2.58;1.83;;;;;;;;;;5073667;28;20012;-60
2021/06/14 06:27:22;;;;;;;3.90;2.10;;;;;;;;;;5074009;28;20052;-60
2021/06/14 06:29:48;;;;;;;3.08;1.95;;;;;;;;;;5073759;28;20066;-60
2021/06/14 06:32:13;;;;;;;5.43;2.50;;;;;;;;;;5073948;28;20025;-60
2021/06/14 06:34:39;;;;;;;4.13;2.20;;;;;;;;;;5073679;28;20071;-60
2021/06/14 06:37:05;;;;;;;3.88;2.20;;;;;;;;;;5073643;28;20029;-60
2021/06/14 06:39:31;;;;;;;4.55;2.42;;;;;;;;;;5073932;28;20028;-60
2021/06/14 06:42:00;;;;;;;3.55;2.13;;;;;;;;;;5073588;28;20040;-60
2021/06/14 06:44:25;;;;;;;4.75;2.10;;;;;;;;;;5073430;28;20055;-60
2021/06/14 06:46:51;;;;;;;4.00;2.03;;;;;;;;;;5072029;28;20052;-60
2021/06/14 06:49:16;;;;;;;4.05;1.83;;;;;;;;;;5071770;28;20103;-60
2021/06/14 06:51:42;;;;;;;5.20;2.40;;;;;;;;;;5071676;28;20032;-60
2021/06/14 06:54:11;;;;;;;4.70;2.30;;;;;;;;;;5071952;28;20379;-60
2021/06/14 06:56:40;;;;;;;4.53;2.63;;;;;;;;;;5072359;28;20037;-60
2021/06/14 06:59:06;;;;;;;2.38;1.63;;;;;;;;;;5071196;28;20029;-60
2021/06/14 07:01:31;;;;;;;2.75;1.83;;;;;;;;;;5072591;28;20033;-60
2021/06/14 07:03:57;;;;;;;3.85;2.38;;;;;;;;;;5071291;28;20041;-60
2021/06/14 07:06:23;;;;;;;3.22;1.98;;;;;;;;;;5055054;28;20035;-59
2021/06/14 07:08:48;;;;;;;3.30;1.77;;;;;;;;;;5073021;28;20467;-60
2021/06/14 07:11:14;;;;;;;3.13;1.90;;;;;;;;;;5072033;28;20103;-60
2021/06/14 07:13:39;;;;;;;4.25;2.00;;;;;;;;;;5071679;28;20383;-60
2021/06/14 07:16:05;;;;;;;2.13;1.70;;;;;;;;;;5071615;28;20056;-60
2021/06/14 07:18:30;;;;;;;5.70;1.90;;;;;;;;;;5072980;28;20107;-60
2021/06/14 07:20:58;;;;;;;4.72;2.17;;;;;;;;;;5072987;28;20028;-60
2021/06/14 07:23:24;;;;;;;5.00;2.13;;;;;;;;;;5073067;28;20055;-60
2021/06/14 07:25:50;;;;;;;3.35;1.98;;;;;;;;;;5072916;28;20052;-60
2021/06/14 07:28:16;;;;;;;3.85;1.83;;;;;;;;;;5072816;28;20103;-60
2021/06/14 07:30:42;;;;;;;2.33;1.50;;;;;;;;;;5072736;28;20025;-60
2021/06/14 07:33:07;;;;;;;2.28;1.60;;;;;;;;;;5072617;28;20111;-60
2021/06/14 07:35:34;;;;;;;2.35;1.50;;;;;;;;;;5072634;28;20032;-60
2021/06/14 07:38:00;;;;;;;2.83;1.55;;;;;;;;;;5072812;28;20033;-60
2021/06/14 07:40:27;;;;;;;4.03;2.10;;;;;;;;;;5072659;28;20119;-60
2021/06/14 07:42:53;;;;;;;2.40;1.83;;;;;;;;;;5072659;28;20032;-60
2021/06/14 07:45:23;;;;;;;2.85;2.15;;;;;;;;;;5072732;28;20032;-60
2021/06/14 07:47:49;;;;;;;;;;;;;;;;;;5073002;28;20036;-60
2021/06/14 07:50:14;;;;;;;5.18;2.35;;;;;;;;;;5072582;28;19927;-60
2021/06/14 07:52:40;;;;;;;3.22;2.20;;;;;;;;;;5072481;28;20028;-60
2021/06/14 07:55:05;;;;;;;4.32;2.22;;;;;;;;;;5072576;28;20012;-60
2021/06/14 07:57:31;;;;;;;2.63;1.60;;;;;;;;;;5072657;28;20025;-60
2021/06/14 07:59:56;;;;;;;2.45;1.98;;;;;;;;;;5072576;28;20390;-60
2021/06/14 08:02:22;;;;;;;3.15;2.20;;;;;;;;;;5072077;28;20044;-61
2021/06/14 08:04:48;;;;;;;5.95;1.88;;;;;;;;;;5072589;28;20174;-60
2021/06/14 08:07:13;;;;;;;3.30;1.73;;;;;;;;;;5072411;28;20031;-60
2021/06/14 08:09:38;;;;;;;3.03;2.08;;;;;;;;;;5072371;28;20031;-60
2021/06/14 08:12:05;;;;;;;2.20;1.70;;;;;;;;;;5075736;28;20082;-60
2021/06/14 08:14:31;;;;;;;3.92;2.05;;;;;;;;;;5076120;28;20037;-60
2021/06/14 08:16:57;;;;;;;3.03;1.63;;;;;;;;;;5076068;28;20071;-60
2021/06/14 08:27:13;;;;;;;1.73;1.63;;;;;;;;;;5075907;28;20034;-60
2021/06/14 08:29:38;;;;;;;3.35;1.83;;;;;;;;;;5075767;28;20096;-60
2021/06/14 08:32:04;;;;;;;2.78;1.63;;;;;;;;;;5075750;28;20032;-60
2021/06/14 08:34:30;;;;;;;7.32;1.77;;;;;;;;;;5075657;28;20066;-60
2021/06/14 08:36:55;;;;;;;1.70;1.55;;;;;;;;;;5075438;28;20070;-60
2021/06/14 08:39:21;;;;;;;4.13;1.70;;;;;;;;;;5075957;28;20070;-60
2021/06/14 08:41:47;;;;;;;3.35;1.70;;;;;;;;;;5075255;28;20043;-61
2021/06/14 08:44:14;;;;;;;5.75;1.45;;;;;;;;;;5075611;28;20043;-60
2021/06/14 08:46:39;;;;;;;8.60;2.08;;;;;;;;;;5075557;28;20470;-60
2021/06/14 08:49:06;;;;;;;2.53;1.30;;;;;;;;;;5075665;28;20024;-60
2021/06/14 08:51:31;;;;;;;2.42;1.60;;;;;;;;;;5075916;28;20071;-61
2021/06/14 08:53:57;;;;;;;2.47;1.50;;;;;;;;;;5075615;28;20114;-60
2021/06/14 08:56:24;;;;;;;3.15;1.48;;;;;;;;;;5075742;28;20036;-61
2021/06/14 08:58:50;;;;;;;3.85;1.90;;;;;;;;;;5075828;28;20021;-61
2021/06/14 09:01:16;;;;;;;3.03;1.50;;;;;;;;;;5075482;28;20489;-60
2021/06/14 09:03:42;;;;;;;1.48;1.33;;;;;;;;;;5075001;28;20120;-60
2021/06/14 09:06:07;;;;;;;2.00;1.42;;;;;;;;;;5075696;28;20020;-60
2021/06/14 09:08:33;;;;;;;3.28;1.40;;;;;;;;;;5075412;28;20025;-62
2021/06/14 09:10:59;;;;;;;2.65;1.45;;;;;;;;;;5075300;28;20052;-60
2021/06/14 09:13:26;;;;;;;3.33;1.63;;;;;;;;;;5075238;28;20109;-60
2021/06/14 09:15:54;;;;;;;1.40;1.30;;;;;;;;;;5075217;28;20421;-60
2021/06/14 09:18:25;;;;;;;1.38;1.00;;;;;;;;;;5075268;28;20085;-60
2021/06/14 09:21:00;;;;;;;1.80;1.15;;;;;;;;;;5073812;28;20032;-60
2021/06/14 09:23:37;;;;;;;1.83;1.30;;;;;;;;;;5074943;28;20106;-60
2021/06/14 09:26:03;;;;;;;1.67;1.38;;;;;;;;;;5074863;28;20021;-60
2021/06/14 09:28:28;;;;;;;2.42;1.30;;;;;;;;;;5074790;28;20352;-60
2021/06/14 09:30:54;;;;;;;1.98;1.15;;;;;;;;;;5074745;28;20388;-60
2021/06/14 09:33:23;;;;;;;1.27;1.10;;;;;;;;;;5074762;28;20020;-60
2021/06/14 09:35:50;;;;;;;4.82;2.22;;;;;;;;;;5074591;28;20086;-60
2021/06/14 09:38:17;;;;;;;1.80;1.55;;;;;;;;;;5074807;28;20029;-60
2021/06/14 09:40:45;;;;;;;2.92;1.30;;;;;;;;;;5074669;28;20475;-60
2021/06/14 09:43:22;;;;;;;1.42;1.33;;;;;;;;;;5074422;28;20074;-60
2021/06/14 09:45:47;;;;;;;2.25;1.27;;;;;;;;;;5074584;28;20025;-60
2021/06/14 09:48:16;;;;;;;1.67;1.20;;;;;;;;;;5074198;28;20474;-61
2021/06/14 09:50:43;;;;;;;3.10;1.00;;;;;;;;;;5074525;28;20413;-61
2021/06/14 09:53:15;;;;;;;1.30;1.15;;;;;;;;;;5074502;28;20024;-60
2021/06/14 09:55:42;;;;;;;1.77;0.90;;;;;;;;;;5074531;28;20089;-60
2021/06/14 09:58:20;;;;;;;2.53;1.17;;;;;;;;;;5074227;28;20077;-60
2021/06/14 10:00:50;;;;;;;1.23;1.10;;;;;;;;;;5074054;28;20028;-63
2021/06/14 10:03:16;;;;;;;1.87;1.30;;;;;;;;;;5073774;28;20379;-60
2021/06/14 10:05:46;;;;;;;2.53;0.98;;;;;;;;;;5074425;28;20028;-60
2021/06/14 10:08:11;;;;;;;1.40;1.10;;;;;;;;;;5074328;28;20421;-60
2021/06/14 10:10:39;;;;;;;1.23;1.13;;;;;;;;;;5072964;28;20035;-60
2021/06/14 10:13:05;;;;;;;1.67;1.08;;;;;;;;;;5072971;28;20033;-61
2021/06/14 10:15:35;;;;;;;1.25;1.13;;;;;;;;;;5074282;28;20425;-60
2021/06/14 10:18:02;;;;;;;1.95;1.05;;;;;;;;;;5074305;28;20031;-60
2021/06/14 10:20:29;;;;;;;1.40;1.02;;;;;;;;;;5073975;28;20085;-60
2021/06/14 10:22:56;;;;;;;0.95;0.95;;;;;;;;;;5073781;28;20086;-60
2021/06/14 10:25:23;;;;;;;3.42;1.08;;;;;;;;;;5073834;28;20020;-60
2021/06/14 10:27:48;;;;;;;4.45;1.25;;;;;;;;;;5073910;28;20101;-60
2021/06/14 10:30:15;;;;;;;2.40;1.40;;;;;;;;;;5073904;28;20016;-60
2021/06/14 10:32:42;;;;;;;2.00;1.58;;;;;;;;;;5073128;28;20024;-60
2021/06/14 10:35:08;;;;;;;3.42;1.50;;;;;;;;;;5072773;28;20021;-60
2021/06/14 10:37:44;;;;;;;1.58;1.20;;;;;;;;;;5073430;28;20081;-60
2021/06/14 10:40:15;;;;;;;1.05;0.90;;;;;;;;;;5071999;28;20077;-60
2021/06/14 10:42:41;;;;;;;2.58;1.50;;;;;;;;;;5073164;28;20027;-60
2021/06/14 10:45:07;;;;;;;1.95;1.10;;;;;;;;;;5073307;28;20016;-60
2021/06/14 10:47:33;;;;;;;1.45;1.20;;;;;;;;;;5073416;28;20097;-60
2021/06/14 10:49:59;;;;;;;1.35;0.93;;;;;;;;;;5073485;28;20107;-60
2021/06/14 10:52:25;;;;;;;1.10;1.10;;;;;;;;;;5073360;28;20017;-60
2021/06/14 10:54:50;;;;;;;1.23;1.00;;;;;;;;;;5073451;28;20020;-60
2021/06/14 10:57:16;;;;;;;1.35;1.17;;;;;;;;;;5073572;28;20078;-60
2021/06/14 10:59:45;;;;;;;2.28;1.35;;;;;;;;;;5073491;28;20025;-60
2021/06/14 11:02:16;;;;;;;1.87;1.10;;;;;;;;;;5073371;28;20094;-60
2021/06/14 11:04:42;;;;;;;1.50;1.05;;;;;;;;;;5072027;28;20029;-60
2021/06/14 11:07:08;;;;;;;1.80;1.52;;;;;;;;;;5073182;28;20040;-60
2021/06/14 11:09:38;;;;;;;1.88;1.13;;;;;;;;;;5071883;28;20028;-60
2021/06/14 11:12:04;;;;;;;0.90;0.90;;;;;;;;;;5073210;28;20034;-60
2021/06/14 11:14:30;;;;;;;1.98;1.20;;;;;;;;;;5073173;28;20111;-60
2021/06/14 11:17:00;;;;;;;1.70;1.30;;;;;;;;;;5073319;28;20032;-60
2021/06/14 11:19:35;;;;;;;2.53;1.17;;;;;;;;;;5072983;28;20118;-60
2021/06/14 11:22:01;;;;;;;1.90;1.20;;;;;;;;;;5071937;28;20070;-60
2021/06/14 11:24:34;;;;;;;5.68;2.58;;;;;;;;;;5073301;28;20051;-60
2021/06/14 11:27:00;;;;;;;2.63;1.30;;;;;;;;;;5073168;28;20024;-60
2021/06/14 11:29:26;;;;;;;1.30;1.20;;;;;;;;;;5054855;28;20395;-60
2021/06/14 11:31:56;;;;;;;1.52;1.20;;;;;;;;;;5073314;28;20021;-60
2021/06/14 11:34:21;;;;;;;3.25;1.08;;;;;;;;;;5072994;28;20107;-60
2021/06/14 11:36:56;;;;;;;1.25;1.15;;;;;;;;;;5071777;28;20121;-60
2021/06/14 11:39:23;;;;;;;2.15;1.40;;;;;;;;;;5071834;28;20032;-60
2021/06/14 11:41:50;;;;;;;1.70;1.20;;;;;;;;;;5073026;28;20019;-60
2021/06/14 11:44:23;;;;;;;2.50;1.33;;;;;;;;;;5072752;28;20495;-60
2021/06/14 11:46:49;;;;;;;1.50;1.40;;;;;;;;;;5076206;28;20154;-60
2021/06/14 11:49:15;;;;;;;1.40;1.30;;;;;;;;;;5076715;28;20013;-60
2021/06/14 11:51:41;;;;;;;3.45;1.45;;;;;;;;;;5076628;28;20086;-60
2021/06/14 11:54:07;;;;;;;5.65;2.85;;;;;;;;;;5076630;28;20025;-60
2021/06/14 11:56:35;;;;;;;3.83;2.20;;;;;;;;;;5076438;28;20036;-60
2021/06/14 11:59:02;;;;;;;2.92;1.73;;;;;;;;;;5076428;28;20115;-60
2021/06/14 12:01:28;;;;;;;2.72;1.38;;;;;;;;;;5076363;28;20028;-60
2021/06/14 12:03:56;;;;;;;1.80;1.40;;;;;;;;;;5076122;28;20524;-60
2021/06/14 12:06:22;;;;;;;1.83;1.50;;;;;;;;;;5076422;28;20418;-60
2021/06/14 12:08:48;;;;;;;1.55;1.33;;;;;;;;;;5076425;28;20024;-60
2021/06/14 12:11:14;;;;;;;1.83;1.30;;;;;;;;;;5076452;28;20474;-60
2021/06/14 12:13:39;;;;;;;2.58;1.10;;;;;;;;;;5075042;28;20025;-60
2021/06/14 12:16:05;;;;;;;2.78;1.30;;;;;;;;;;5074806;28;20035;-64
2021/06/14 12:18:31;;;;;;;1.35;1.08;;;;;;;;;;5076137;28;20025;-60
2021/06/14 12:20:59;;;;;;;1.35;1.20;;;;;;;;;;5075404;28;20032;-60
2021/06/14 12:23:30;;;;;;;1.05;1.05;;;;;;;;;;5075676;28;20394;-60
2021/06/14 12:25:57;;;;;;;1.83;1.50;;;;;;;;;;5076572;28;20028;-60
2021/06/14 12:28:22;;;;;;;1.88;1.33;;;;;;;;;;5075862;28;20062;-60
2021/06/14 12:30:50;;;;;;;1.17;1.08;;;;;;;;;;5076066;28;20413;-60
2021/06/14 12:33:25;;;;;;;1.00;1.00;;;;;;;;;;5075942;28;20017;-60
2021/06/14 12:35:52;;;;;;;2.95;1.40;;;;;;;;;;5075619;28;20028;-60
2021/06/14 12:38:17;;;;;;;1.90;1.33;;;;;;;;;;5075877;28;20029;-60
2021/06/14 12:40:43;;;;;;;2.20;0.90;;;;;;;;;;5075465;28;20078;-60
2021/06/14 12:43:11;;;;;;;1.90;1.67;;;;;;;;;;5075688;28;20527;-60
2021/06/14 12:45:39;;;;;;;3.47;1.75;;;;;;;;;;5075723;28;20116;-60
2021/06/14 12:48:07;;;;;;;3.22;2.00;;;;;;;;;;5074460;28;20028;-60
2021/06/14 12:50:38;;;;;;;1.52;1.45;;;;;;;;;;5074797;28;20070;-60
2021/06/14 12:53:06;;;;;;;3.13;1.60;;;;;;;;;;5074873;28;20028;-60
2021/06/14 12:55:35;;;;;;;1.55;1.20;;;;;;;;;;5074838;28;20056;-60
2021/06/14 12:58:05;;;;;;;2.25;1.38;;;;;;;;;;5073470;28;20505;-60
2021/06/14 13:00:32;;;;;;;2.05;1.20;;;;;;;;;;5074158;28;20031;-60
2021/06/14 13:03:01;;;;;;;2.65;1.42;;;;;;;;;;5074605;28;20032;-60
2021/06/14 13:05:27;;;;;;;2.35;1.70;;;;;;;;;;5075219;28;20025;-60
2021/06/14 13:08:03;;;;;;;3.55;1.75;;;;;;;;;;5075192;28;20044;-60
2021/06/14 13:10:30;;;;;;;2.65;1.60;;;;;;;;;;5074991;28;20021;-60
2021/06/14 13:12:56;;;;;;;5.00;2.20;;;;;;;;;;5074984;28;20395;-60
2021/06/14 13:15:27;;;;;;;4.93;1.90;;;;;;;;;;5074358;28;20456;-60
2021/06/14 13:17:54;;;;;;;4.38;1.80;;;;;;;;;;5075597;28;20577;-60
2021/06/14 13:20:20;;;;;;;2.17;1.67;;;;;;;;;;5075074;28;20017;-60
2021/06/14 13:22:46;;;;;;;3.00;1.50;;;;;;;;;;5075304;28;20420;-60
2021/06/14 13:25:12;;;;;;;1.60;1.50;;;;;;;;;;5074659;28;20096;-60
2021/06/14 13:27:48;;;;;;;3.55;1.80;;;;;;;;;;5074668;28;20035;-60
2021/06/14 13:30:14;;;;;;;2.03;1.75;;;;;;;;;;5074994;28;20465;-60
2021/06/14 13:35:35;;;;;;;5.10;1.50;;;;;;;;;;5065661;28;20107;-60
2021/06/14 13:38:00;;;;;;;1.45;1.15;;;;;;;;;;5073491;28;20020;-60
2021/06/14 13:40:28;;;;;;;2.45;1.70;;;;;;;;;;5074337;28;20026;-60
2021/06/14 13:43:00;;;;;;;1.50;1.40;;;;;;;;;;5074630;28;20027;-60
2021/06/14 13:45:30;;;;;;;1.23;1.20;;;;;;;;;;5074518;28;20028;-60
2021/06/14 13:48:00;;;;;;;1.67;1.58;;;;;;;;;;5074528;28;20093;-60
2021/06/14 13:50:26;;;;;;;2.60;1.37;;;;;;;;;;5074318;28;20090;-60
2021/06/14 13:52:51;;;;;;;2.63;1.50;;;;;;;;;;5074527;28;20632;-60
2021/06/14 13:55:20;;;;;;;1.85;1.30;;;;;;;;;;5073947;28;20036;-60
2021/06/14 13:57:53;;;;;;;3.63;1.50;;;;;;;;;;5074388;28;20103;-60
2021/06/14 14:00:23;;;;;;;2.30;1.77;;;;;;;;;;5073774;28;20067;-60
2021/06/14 14:02:50;;;;;;;5.40;2.40;;;;;;;;;;5073210;28;20047;-61
2021/06/14 14:05:30;;;;;;;2.75;2.03;;;;;;;;;;5072836;28;20017;-60
2021/06/14 14:07:56;;;;;;;1.55;1.23;;;;;;;;;;5073733;28;20028;-60
2021/06/14 14:10:23;;;;;;;5.40;2.53;;;;;;;;;;5074106;28;20020;-60
2021/06/14 14:12:49;;;;;;;2.33;1.50;;;;;;;;;;5073608;28;20032;-60
2021/06/14 14:15:15;;;;;;;1.92;1.42;;;;;;;;;;5074108;28;20158;-60
2021/06/14 14:17:41;;;;;;;1.33;1.23;;;;;;;;;;5073893;28;20028;-60
2021/06/14 14:20:08;;;;;;;1.75;1.50;;;;;;;;;;5073971;28;20021;-60
2021/06/14 14:22:33;;;;;;;1.85;1.70;;;;;;;;;;5074008;28;20029;-60
2021/06/14 14:24:59;;;;;;;2.15;1.50;;;;;;;;;;5073758;28;20028;-60
2021/06/14 14:27:26;;;;;;;2.38;1.60;;;;;;;;;;5073828;28;20118;-60
2021/06/14 14:29:53;;;;;;;4.20;2.53;;;;;;;;;;5073816;28;20017;-60
2021/06/14 14:32:19;;;;;;;2.20;1.80;;;;;;;;;;5072421;28;20421;-60
2021/06/14 14:34:45;;;;;;;3.17;1.60;;;;;;;;;;5073512;28;20025;-60
2021/06/14 14:37:39;;;;;;;1.60;1.50;;;;;;;;;;5073593;28;20033;-60
2021/06/14 14:40:05;;;;;;;3.95;1.50;;;;;;;;;;5073182;28;20033;-60
2021/06/14 14:42:31;;;;;;;1.63;1.45;;;;;;;;;;5073299;28;20028;-60
2021/06/14 14:44:57;;;;;;;1.60;1.50;;;;;;;;;;5073051;28;20028;-60
2021/06/14 14:47:23;;;;;;;3.00;1.60;;;;;;;;;;5073698;28;20013;-61
2021/06/14 14:49:50;;;;;;;2.33;1.60;;;;;;;;;;5073204;28;20025;-61
2021/06/14 14:52:16;;;;;;;1.55;1.40;;;;;;;;;;5073611;28;20023;-60
2021/06/14 14:54:41;;;;;;;2.65;1.77;;;;;;;;;;5073583;28;20123;-60